Time;durP1;ratioP1;P1;durP2;ratioP2;P2;SDS_P1;SDS_P2;PMS_P1;PMS_P2;Temp;Humidity;BMP_temperature;BMP_pressure;BME280_temperature;BME280_humidity;BME280_pressure;Samples;Min_cycle;Max_cycle;Signal;HPM_P1;HPM_P2
2023/01/10 00:00:20;;;;;;;17.15;4.22;;;;;;;3.77;100.00;101223.56;4955265;29;20082;-80
2023/01/10 00:02:45;;;;;;;15.77;4.63;;;;;;;3.71;100.00;101229.69;4955209;28;20090;-82
2023/01/10 00:05:10;;;;;;;22.52;4.28;;;;;;;3.58;100.00;101223.25;4955267;29;20154;-82
2023/01/10 00:07:36;;;;;;;15.32;4.13;;;;;;;3.55;100.00;101213.13;4955175;29;20509;-79
2023/01/10 00:10:01;;;;;;;15.30;4.38;;;;;;;3.87;100.00;101248.81;4937782;28;20065;-80
2023/01/10 00:15:10;;;;;;;15.20;3.85;;;;;;;3.83;100.00;101234.44;4955255;29;20121;-84
2023/01/10 00:17:36;;;;;;;15.38;4.28;;;;;;;3.78;100.00;101241.41;4954170;28;20059;-82
2023/01/10 00:20:01;;;;;;;20.27;3.58;;;;;;;3.86;100.00;101274.41;4937214;29;20046;-74
2023/01/10 00:22:26;;;;;;;19.98;4.10;;;;;;;3.75;100.00;101269.59;4954619;29;20467;-74
2023/01/10 00:24:51;;;;;;;19.48;3.88;;;;;;;3.49;100.00;101254.97;4937462;29;20083;-78
2023/01/10 00:27:21;;;;;;;24.90;5.60;;;;;;;3.52;100.00;101277.84;4954715;29;20081;-78
2023/01/10 00:29:47;;;;;;;13.73;4.43;;;;;;;3.49;100.00;101287.31;4954639;28;20081;-75
2023/01/10 00:32:12;;;;;;;13.60;3.50;;;;;;;3.41;100.00;101282.41;4954499;29;20551;-84
2023/01/10 00:34:37;;;;;;;16.80;3.60;;;;;;;3.38;100.00;101290.16;4954864;29;20114;-80
2023/01/10 00:37:03;;;;;;;16.38;4.20;;;;;;;3.35;100.00;101295.34;4954901;29;20467;-78
2023/01/10 00:39:28;;;;;;;19.83;4.07;;;;;;;3.25;100.00;101284.53;4954697;28;20593;-86
2023/01/10 00:44:57;;;;;;;13.32;4.47;;;;;;;3.09;100.00;101288.34;4877153;29;20049;-79
2023/01/10 00:47:22;;;;;;;13.38;4.07;;;;;;;3.06;100.00;101293.53;4877107;29;20157;-79
2023/01/10 00:49:48;;;;;;;16.80;4.10;;;;;;;2.99;100.00;101297.09;4876855;29;20037;-79
2023/01/10 00:52:13;;;;;;;17.50;4.53;;;;;;;3.07;100.00;101310.50;4876929;29;20037;-83
2023/01/10 00:54:38;;;;;;;19.95;4.63;;;;;;;2.95;100.00;101301.44;4876791;29;20037;-85
2023/01/10 00:57:04;;;;;;;17.83;4.35;;;;;;;2.95;100.00;101311.66;4877001;29;20469;-79
2023/01/10 00:59:29;;;;;;;16.50;5.07;;;;;;;2.86;100.00;101302.50;4876981;29;20076;-80
2023/01/10 01:01:54;;;;;;;15.68;4.10;;;;;;;2.93;100.00;101313.38;4876820;29;20049;-84
2023/01/10 01:04:20;;;;;;;21.60;5.20;;;;;;;2.90;100.00;101303.25;4861514;29;20064;-78
2023/01/10 01:06:46;;;;;;;18.45;5.13;;;;;;;3.02;100.00;101318.25;4876827;29;20045;-80
2023/01/10 01:09:13;;;;;;;16.60;5.57;;;;;;;3.03;100.00;101322.47;4877002;29;20043;-74
2023/01/10 01:11:38;;;;;;;15.93;4.90;;;;;;;3.10;100.00;101335.94;4877023;29;20032;-73
2023/01/10 01:14:04;;;;;;;17.52;4.75;;;;;;;2.97;100.00;101315.00;4876939;29;20029;-73
2023/01/10 01:16:29;;;;;;;15.48;6.15;;;;;;;3.17;100.00;101340.88;4941482;29;20498;-73
2023/01/10 01:18:55;;;;;;;16.75;5.10;;;;;;;3.23;100.00;101349.22;4937136;29;20495;-74
2023/01/10 01:21:21;;;;;;;19.15;5.35;;;;;;;3.29;100.00;101360.16;4954309;28;20055;-73
2023/01/10 01:23:46;;;;;;;18.85;5.30;;;;;;;3.36;100.00;101360.84;4954311;29;20066;-73
2023/01/10 01:26:11;;;;;;;17.42;5.25;;;;;;;3.39;100.00;101361.59;4954346;29;20110;-74
2023/01/10 01:28:37;;;;;;;18.23;5.68;;;;;;;3.42;100.00;101363.22;4956093;28;20034;-74
2023/01/10 01:31:07;;;;;;;16.95;5.45;;;;;;;3.45;100.00;101364.00;4940560;29;20070;-74
2023/01/10 01:33:32;;;;;;;16.98;5.22;;;;;;;3.56;100.00;101370.56;4941145;29;20070;-74
2023/01/10 01:35:58;;;;;;;21.60;4.85;;;;;;;3.56;100.00;101368.00;4957756;28;20467;-74
2023/01/10 01:38:23;;;;;;;19.83;6.32;;;;;;;3.59;100.00;101365.38;4957822;29;20027;-74
2023/01/10 01:40:48;;;;;;;19.17;5.43;;;;;;;3.56;100.00;101362.91;4957844;28;20023;-72
2023/01/10 01:43:22;;;;;;;20.50;5.72;;;;;;;3.69;100.00;101372.75;4957856;28;20030;-74
2023/01/10 01:45:48;;;;;;;18.65;4.93;;;;;;;3.66;100.00;101366.91;4957819;29;20032;-74
2023/01/10 01:48:51;;;;;;;15.27;4.90;;;;;;;3.82;100.00;101369.88;4957700;29;20023;-74
2023/01/10 01:51:20;;;;;;;17.60;5.47;;;;;;;3.84;100.00;101375.81;4898361;29;20051;-72
2023/01/10 01:53:59;;;;;;;18.73;5.20;;;;;;;3.79;100.00;101383.56;4898559;29;20037;-73
2023/01/10 01:56:41;;;;;;;20.88;5.07;;;;;;;3.60;100.00;101365.31;4898675;29;20044;-75
2023/01/10 01:59:27;;;;;;;16.60;5.35;;;;;;;3.64;100.00;101382.25;4898667;29;20041;-75
2023/01/10 02:01:59;;;;;;;20.48;5.93;;;;;;;3.64;100.00;101392.47;4898474;29;20496;-76
2023/01/10 02:04:32;;;;;;;18.75;5.40;;;;;;;3.51;100.00;101377.47;4898313;29;20111;-74
2023/01/10 02:06:58;;;;;;;16.15;6.15;;;;;;;3.40;100.00;101365.00;4898345;29;20100;-74
2023/01/10 02:09:49;;;;;;;22.42;6.20;;;;;;;3.61;100.00;101402.75;4898381;29;20048;-76
2023/01/10 02:12:15;;;;;;;22.00;6.30;;;;;;;3.62;100.00;101388.25;4897696;29;20041;-76
2023/01/10 02:14:45;;;;;;;22.13;6.63;;;;;;;3.75;100.00;101407.53;4898140;29;20028;-73
2023/01/10 02:17:11;;;;;;;20.30;6.85;;;;;;;3.76;100.00;101398.16;4898464;29;20049;-77
2023/01/10 02:19:57;;;;;;;20.08;6.50;;;;;;;3.89;100.00;101410.56;4898320;29;20539;-75
2023/01/10 02:22:55;;;;;;;21.23;6.82;;;;;;;3.93;100.00;101413.84;4936285;29;20036;-74
2023/01/10 02:25:39;;;;;;;21.90;6.25;;;;;;;3.96;100.00;101408.69;4897795;29;20037;-77
2023/01/10 02:28:31;;;;;;;17.38;5.88;;;;;;;4.01;100.00;101400.00;4898006;29;20046;-76
2023/01/10 02:31:11;;;;;;;19.85;6.88;;;;;;;3.98;100.00;101401.81;4898167;29;20061;-75
2023/01/10 02:33:52;;;;;;;20.30;6.07;;;;;;;4.08;100.00;101415.19;4898093;29;20189;-78
2023/01/10 02:36:40;;;;;;;25.77;7.03;;;;;;;4.11;100.00;101410.81;4897847;29;20571;-75
2023/01/10 02:39:27;;;;;;;20.75;6.45;;;;;;;4.00;100.00;101394.94;4897417;29;20033;-74
2023/01/10 02:42:00;;;;;;;24.25;7.10;;;;;;;4.10;100.00;101414.25;4897490;29;20432;-75
2023/01/10 02:44:40;;;;;;;17.95;5.65;;;;;;;4.02;100.00;101400.84;4897886;29;20073;-82
2023/01/10 02:47:07;;;;;;;22.73;6.18;;;;;;;3.97;100.00;101413.75;4897666;29;20036;-81
2023/01/10 02:49:50;;;;;;;25.95;7.28;;;;;;;3.86;100.00;101410.66;4897620;29;20044;-79
2023/01/10 02:52:29;;;;;;;22.20;6.40;;;;;;;3.82;100.00;101428.63;4897648;29;20044;-78
2023/01/10 02:54:58;;;;;;;22.02;6.18;;;;;;;3.73;100.00;101430.53;4897627;29;20041;-79
2023/01/10 02:57:26;;;;;;;21.73;6.90;;;;;;;3.65;100.00;101419.69;4898665;29;20071;-81
2023/01/10 03:00:19;;;;;;;23.17;6.80;;;;;;;3.55;100.00;101425.91;4897925;29;20552;-80
2023/01/10 03:03:06;;;;;;;20.90;6.85;;;;;;;3.37;100.00;101411.84;4936192;28;20401;-79
2023/01/10 03:05:31;;;;;;;21.13;6.72;;;;;;;3.40;100.00;101432.19;4956681;29;20039;-79
2023/01/10 03:08:15;;;;;;;17.90;6.50;;;;;;;3.31;100.00;101426.47;4956571;29;20041;-78
2023/01/10 03:10:48;;;;;;;23.80;7.45;;;;;;;3.22;100.00;101422.41;4956249;28;20098;-78
2023/01/10 03:13:35;;;;;;;23.27;6.00;;;;;;;3.29;100.00;101446.09;4956468;29;20098;-78
2023/01/10 03:16:03;;;;;;;22.27;6.47;;;;;;;3.28;100.00;101452.06;4956191;29;20046;-77
2023/01/10 03:19:01;;;;;;;25.20;7.22;;;;;;;3.32;100.00;101449.41;4956317;29;20023;-81
2023/01/10 03:21:29;;;;;;;22.75;6.85;;;;;;;3.40;100.00;101462.84;4897012;29;20048;-79
2023/01/10 03:24:03;;;;;;;21.45;6.90;;;;;;;3.49;100.00;101473.72;4897198;29;20392;-77
2023/01/10 03:26:52;;;;;;;21.83;7.13;;;;;;;3.51;100.00;101472.78;4896904;29;20093;-78
2023/01/10 03:29:24;;;;;;;29.52;7.35;;;;;;;3.41;100.00;101440.69;4896889;29;20032;-76
2023/01/10 03:31:55;;;;;;;23.23;6.15;;;;;;;3.66;100.00;101476.72;4896811;29;20607;-77
2023/01/10 03:34:22;;;;;;;21.83;6.72;;;;;;;3.68;100.00;101485.19;4881320;29;20164;-77
2023/01/10 03:37:14;;;;;;;26.75;7.10;;;;;;;3.68;100.00;101491.13;4896750;29;20036;-78
2023/01/10 03:40:12;;;;;;;21.23;5.70;;;;;;;3.55;100.00;101461.66;4896876;29;20085;-78
2023/01/10 03:46:05;;;;;;;23.15;5.82;;;;;;;3.70;100.00;101493.63;4896926;29;20067;-76
2023/01/10 03:48:36;;;;;;;20.75;6.63;;;;;;;3.52;100.00;101474.47;4896752;29;20037;-79
2023/01/10 03:51:04;;;;;;;22.58;6.03;;;;;;;3.51;100.00;101485.56;4896402;29;20033;-78
2023/01/10 03:53:31;;;;;;;21.05;5.10;;;;;;;3.51;100.00;101495.78;4881161;29;20036;-76
2023/01/10 03:55:57;;;;;;;20.75;6.22;;;;;;;3.57;100.00;101503.31;4896584;29;20052;-77
2023/01/10 03:58:22;;;;;;;18.80;5.47;;;;;;;3.55;100.00;101499.13;4940098;29;20119;-76
2023/01/10 04:00:48;;;;;;;20.83;4.68;;;;;;;3.57;100.00;101515.25;4955234;29;20545;-80
2023/01/10 04:03:13;;;;;;;23.27;5.53;;;;;;;3.53;100.00;101514.44;4955559;29;20066;-79
2023/01/10 04:05:39;;;;;;;21.88;5.32;;;;;;;3.41;100.00;101501.97;4955807;29;20035;-77
2023/01/10 04:08:04;;;;;;;21.30;5.30;;;;;;;3.42;100.00;101501.94;4955413;29;20113;-75
2023/01/10 04:10:30;;;;;;;19.52;5.68;;;;;;;3.50;100.00;101529.84;4955280;29;20023;-79
2023/01/10 04:12:59;;;;;;;23.60;6.13;;;;;;;3.45;100.00;101529.97;4937839;29;20035;-79
2023/01/10 04:15:24;;;;;;;20.92;5.18;;;;;;;3.36;100.00;101522.50;4955187;29;20086;-80
2023/01/10 04:17:50;;;;;;;18.20;5.05;;;;;;;3.21;100.00;101501.56;4937156;29;20484;-77
2023/01/10 04:20:15;;;;;;;19.02;5.30;;;;;;;3.31;100.00;101538.78;4955105;29;20070;-78
2023/01/10 04:22:41;;;;;;;22.58;5.47;;;;;;;3.32;100.00;101538.75;4955294;29;20027;-77
2023/01/10 04:25:06;;;;;;;23.05;6.30;;;;;;;3.36;100.00;101550.59;4955121;29;20031;-76
2023/01/10 04:27:32;;;;;;;19.38;5.65;;;;;;;3.41;100.00;101553.88;4937210;29;20039;-79
2023/01/10 04:29:57;;;;;;;25.50;6.03;;;;;;;3.45;100.00;101555.50;4954984;29;20030;-80
2023/01/10 04:32:22;;;;;;;22.20;4.40;;;;;;;3.38;100.00;101536.06;4954715;29;20487;-81
2023/01/10 04:34:48;;;;;;;23.75;5.22;;;;;;;3.45;100.00;101552.09;4954838;29;20074;-77
2023/01/10 04:37:13;;;;;;;23.05;5.82;;;;;;;3.44;100.00;101547.84;4954893;29;20395;-77
2023/01/10 04:39:38;;;;;;;21.45;4.80;;;;;;;3.42;100.00;101544.50;4954758;29;20046;-78
2023/01/10 04:42:04;;;;;;;23.95;5.30;;;;;;;3.40;100.00;101536.03;4954664;29;20146;-84
2023/01/10 04:44:29;;;;;;;21.88;4.93;;;;;;;3.40;100.00;101543.69;4954884;29;20027;-77
2023/01/10 04:46:55;;;;;;;22.83;5.15;;;;;;;3.18;100.00;101512.69;4954810;29;20065;-78
2023/01/10 04:49:20;;;;;;;19.02;5.47;;;;;;;3.38;100.00;101546.28;4937490;29;20023;-77
2023/01/10 04:51:46;;;;;;;20.95;4.68;;;;;;;3.30;100.00;101534.56;4955141;29;20035;-79
2023/01/10 04:54:11;;;;;;;27.83;5.45;;;;;;;3.43;100.00;101562.31;4954817;29;20027;-79
2023/01/10 04:56:36;;;;;;;27.65;5.20;;;;;;;3.40;100.00;101553.91;4937668;29;20039;-81
2023/01/10 04:59:02;;;;;;;21.95;4.50;;;;;;;3.42;100.00;101553.00;4937448;29;20027;-78
2023/01/10 05:01:27;;;;;;;26.05;4.90;;;;;;;3.26;100.00;101546.56;4954661;29;20023;-82
2023/01/10 05:03:54;;;;;;;22.30;4.72;;;;;;;3.35;100.00;101563.38;4959038;28;20036;-81
2023/01/10 05:06:22;;;;;;;19.08;4.50;;;;;;;3.31;100.00;101559.19;4961052;28;20102;-79
2023/01/10 05:08:47;;;;;;;26.80;5.32;;;;;;;3.25;100.00;101549.13;4960834;29;20387;-81
2023/01/10 05:11:13;;;;;;;25.27;4.50;;;;;;;3.20;100.00;101561.16;4943897;29;20027;-82
2023/01/10 05:13:39;;;;;;;24.77;5.13;;;;;;;3.04;100.00;101542.75;4961083;28;20038;-81
2023/01/10 05:16:04;;;;;;;24.30;4.78;;;;;;;2.88;100.00;101534.56;4961445;29;20046;-80
2023/01/10 05:18:30;;;;;;;29.20;4.90;;;;;;;3.01;100.00;101571.72;4963402;29;20031;-77
2023/01/10 05:21:10;;;;;;;25.27;5.47;;;;;;;3.01;100.00;101593.84;4962125;28;20023;-80
2023/01/10 05:23:36;;;;;;;25.10;4.75;;;;;;;3.00;100.00;101599.81;4960842;28;20023;-80
2023/01/10 05:26:06;;;;;;;22.77;5.22;;;;;;;2.95;100.00;101606.69;4960806;29;20057;-79
2023/01/10 05:28:31;;;;;;;32.38;5.25;;;;;;;2.94;100.00;101602.47;4960613;29;20019;-81
2023/01/10 05:30:56;;;;;;;26.40;5.35;;;;;;;3.05;100.00;101608.25;4960570;29;20094;-80
2023/01/10 05:33:22;;;;;;;27.23;6.38;;;;;;;2.99;100.00;101596.44;4942965;29;20046;-80
2023/01/10 05:35:47;;;;;;;21.70;5.60;;;;;;;3.03;100.00;101615.06;4943348;28;20117;-81
2023/01/10 05:38:12;;;;;;;27.13;4.95;;;;;;;3.04;100.00;101609.91;4960831;29;20031;-80
2023/01/10 05:40:38;;;;;;;29.92;5.32;;;;;;;3.07;100.00;101611.59;4960603;28;20019;-82
2023/01/10 05:43:03;;;;;;;29.73;5.63;;;;;;;3.09;100.00;101607.28;4960556;28;20042;-78
2023/01/10 05:45:29;;;;;;;23.98;5.47;;;;;;;3.10;100.00;101616.63;4960724;29;20034;-76
2023/01/10 05:47:54;;;;;;;29.58;6.70;;;;;;;3.16;100.00;101624.19;4960646;28;20027;-80
2023/01/10 05:50:19;;;;;;;37.28;5.80;;;;;;;3.17;100.00;101616.50;4960371;28;20490;-79
2023/01/10 05:52:45;;;;;;;24.80;5.05;;;;;;;3.33;100.00;101634.03;4960772;29;20030;-79
2023/01/10 05:55:10;;;;;;;24.05;5.28;;;;;;;3.42;100.00;101637.25;4960641;29;20031;-80
2023/01/10 05:57:35;;;;;;;32.13;6.20;;;;;;;3.51;100.00;101631.09;4960572;29;20485;-78
2023/01/10 06:00:02;;;;;;;29.08;5.10;;;;;;;3.45;100.00;101605.72;4960372;29;20156;-82
2023/01/10 06:02:28;;;;;;;28.63;4.90;;;;;;;3.69;100.00;101638.38;4960516;29;20050;-80
2023/01/10 06:04:54;;;;;;;31.67;6.13;;;;;;;3.70;100.00;101632.41;4960277;28;20019;-77
2023/01/10 06:07:21;;;;;;;26.17;5.10;;;;;;;3.73;100.00;101640.00;4960660;28;20433;-77
2023/01/10 06:09:46;;;;;;;30.25;5.13;;;;;;;3.63;100.00;101612.97;4960322;29;20483;-77
2023/01/10 06:12:11;;;;;;;27.98;5.15;;;;;;;3.74;100.00;101628.94;4960545;29;20075;-81
2023/01/10 06:14:37;;;;;;;25.05;4.95;;;;;;;3.52;100.00;101583.44;4958960;28;20479;-83
2023/01/10 06:17:03;;;;;;;26.67;5.20;;;;;;;3.87;100.00;101641.41;4956547;29;20031;-83
2023/01/10 06:19:29;;;;;;;26.90;5.10;;;;;;;3.76;100.00;101625.50;4959871;28;20031;-83
2023/01/10 06:21:54;;;;;;;20.85;4.50;;;;;;;3.91;100.00;101646.41;4957548;29;20134;-76
2023/01/10 06:24:19;;;;;;;24.58;4.95;;;;;;;3.93;100.00;101654.03;4957279;28;20027;-78
2023/01/10 06:26:45;;;;;;;25.67;4.90;;;;;;;3.87;100.00;101638.88;4957186;29;20502;-78
2023/01/10 06:29:10;;;;;;;30.10;5.53;;;;;;;3.87;100.00;101643.97;4957237;29;20070;-79
2023/01/10 06:31:35;;;;;;;24.77;4.75;;;;;;;3.88;100.00;101643.09;4956829;28;20132;-78
2023/01/10 06:34:00;;;;;;;24.55;4.32;;;;;;;3.96;100.00;101654.84;4956932;29;20071;-78
2023/01/10 06:36:26;;;;;;;29.55;4.60;;;;;;;3.83;100.00;101630.41;4956832;28;20069;-78
2023/01/10 06:38:51;;;;;;;30.05;4.97;;;;;;;3.97;100.00;101653.97;4957085;28;20027;-77
2023/01/10 06:41:16;;;;;;;24.23;4.75;;;;;;;3.90;100.00;101652.41;4957123;29;20030;-78
2023/01/10 06:43:44;;;;;;;26.50;5.25;;;;;;;3.81;100.00;101651.75;4939512;29;20031;-78
2023/01/10 06:46:10;;;;;;;25.77;4.72;;;;;;;3.89;100.00;101667.78;4956855;29;20034;-78
2023/01/10 06:48:36;;;;;;;27.63;5.15;;;;;;;3.81;100.00;101667.94;4956729;29;20463;-77
2023/01/10 06:51:03;;;;;;;29.58;5.47;;;;;;;3.71;100.00;101676.66;4956431;28;20038;-78
2023/01/10 06:53:28;;;;;;;27.23;4.57;;;;;;;3.59;100.00;101684.59;4956836;28;20110;-77
2023/01/10 06:55:56;;;;;;;28.65;4.97;;;;;;;3.48;100.00;101683.97;4956732;29;20131;-79
2023/01/10 06:58:22;;;;;;;26.13;5.75;;;;;;;3.31;100.00;101677.47;4956771;29;20037;-78
2023/01/10 07:00:47;;;;;;;35.65;4.80;;;;;;;3.29;100.00;101701.34;4956165;28;20027;-79
2023/01/10 07:03:12;;;;;;;26.75;5.43;;;;;;;2.97;100.00;101661.97;4939582;29;20043;-78
2023/01/10 07:05:37;;;;;;;30.67;6.18;;;;;;;3.05;100.00;101703.50;4956382;29;20031;-80
2023/01/10 07:08:03;;;;;;;25.90;5.60;;;;;;;3.10;100.00;101713.59;4956360;28;20033;-78
2023/01/10 07:10:28;;;;;;;23.58;6.13;;;;;;;3.03;100.00;101715.41;4956479;29;20055;-78
2023/01/10 07:12:54;;;;;;;32.22;5.30;;;;;;;3.02;100.00;101725.66;4938919;29;20031;-78
2023/01/10 07:15:20;;;;;;;28.73;5.00;;;;;;;2.72;100.00;101679.38;4956062;28;20065;-78
2023/01/10 07:17:45;;;;;;;32.95;4.97;;;;;;;2.93;100.00;101716.44;4956296;29;20444;-77
2023/01/10 07:20:11;;;;;;;29.67;4.90;;;;;;;2.90;100.00;101725.88;4956324;29;20106;-78
2023/01/10 07:22:36;;;;;;;25.17;5.22;;;;;;;2.77;100.00;101698.03;4956087;28;20023;-78
2023/01/10 07:25:02;;;;;;;30.40;5.47;;;;;;;2.99;100.00;101741.03;4956082;29;20459;-78
2023/01/10 07:27:30;;;;;;;27.45;5.72;;;;;;;3.11;100.00;101751.00;4955306;28;20031;-78
2023/01/10 07:29:55;;;;;;;29.67;4.88;;;;;;;3.24;100.00;101756.72;4955721;28;20070;-78
2023/01/10 07:32:21;;;;;;;29.15;5.25;;;;;;;3.15;100.00;101722.88;4955754;28;20108;-79
2023/01/10 07:34:46;;;;;;;21.77;4.22;;;;;;;3.44;100.00;101762.31;4956077;28;20058;-78
2023/01/10 07:37:11;;;;;;;26.88;4.80;;;;;;;3.53;100.00;101764.69;4955752;29;20035;-79
2023/01/10 07:39:37;;;;;;;24.08;4.88;;;;;;;3.47;100.00;101751.22;4955748;28;20078;-78
2023/01/10 07:42:02;;;;;;;23.13;5.03;;;;;;;3.54;100.00;101757.88;4955769;28;20027;-78
2023/01/10 07:44:28;;;;;;;27.42;5.05;;;;;;;3.69;100.00;101775.47;4938277;29;20069;-79
2023/01/10 07:46:53;;;;;;;27.00;5.72;;;;;;;3.72;100.00;101783.91;4955817;28;20066;-79
2023/01/10 07:49:18;;;;;;;25.25;4.57;;;;;;;3.63;100.00;101758.53;4955517;28;20383;-80
2023/01/10 07:51:44;;;;;;;26.90;5.53;;;;;;;3.50;100.00;101738.41;4955784;29;20431;-78
2023/01/10 07:54:09;;;;;;;26.73;5.00;;;;;;;3.80;100.00;101788.03;4955537;28;20368;-79
2023/01/10 07:56:34;;;;;;;25.90;5.63;;;;;;;3.81;100.00;101782.91;4955567;29;20031;-79
2023/01/10 07:59:00;;;;;;;31.27;5.65;;;;;;;3.75;100.00;101783.03;4955580;29;20055;-78
2023/01/10 08:01:25;;;;;;;22.73;4.93;;;;;;;3.76;100.00;101786.44;4955316;28;20110;-78
2023/01/10 08:03:51;;;;;;;21.98;4.63;;;;;;;3.79;100.00;101789.75;4955475;29;20142;-79
2023/01/10 08:06:16;;;;;;;28.27;5.50;;;;;;;3.81;100.00;101798.22;4955703;29;20110;-78
2023/01/10 08:08:42;;;;;;;32.13;4.93;;;;;;;3.85;100.00;101791.38;4955381;28;20047;-80
2023/01/10 08:11:07;;;;;;;25.88;6.03;;;;;;;3.88;100.00;101787.03;4955194;29;20034;-78
2023/01/10 08:13:33;;;;;;;28.55;5.10;;;;;;;3.75;100.00;101772.81;4955436;29;20020;-78
2023/01/10 08:15:58;;;;;;;25.63;4.80;;;;;;;3.83;100.00;101777.75;4955258;29;20027;-78
2023/01/10 08:18:25;;;;;;;27.88;5.53;;;;;;;3.84;100.00;101790.53;4955238;29;20038;-78
2023/01/10 08:20:52;;;;;;;28.67;5.15;;;;;;;3.85;100.00;101791.38;4955243;29;20099;-78
2023/01/10 08:23:18;;;;;;;24.10;5.07;;;;;;;3.89;100.00;101788.69;4954942;28;20033;-78
2023/01/10 08:25:43;;;;;;;27.13;5.82;;;;;;;3.89;100.00;101778.47;4954789;29;20061;-76
2023/01/10 08:28:09;;;;;;;24.63;4.90;;;;;;;3.86;100.00;101785.38;4954833;29;20031;-76
2023/01/10 08:30:34;;;;;;;26.67;5.03;;;;;;;3.89;100.00;101796.38;4954796;29;20039;-75
2023/01/10 08:33:04;;;;;;;26.70;5.40;;;;;;;3.88;100.00;101796.41;4954620;29;20039;-75
2023/01/10 08:35:34;;;;;;;22.92;5.07;;;;;;;3.81;100.00;101799.94;4954535;29;20023;-76
2023/01/10 08:38:00;;;;;;;21.00;5.30;;;;;;;3.87;100.00;101803.22;4953585;28;20391;-80
2023/01/10 08:40:25;;;;;;;27.58;5.97;;;;;;;3.84;100.00;101798.19;4954721;28;20042;-80
2023/01/10 08:43:09;;;;;;;18.92;4.88;;;;;;;3.88;100.00;101794.69;4954689;29;20042;-78
2023/01/10 08:45:36;;;;;;;23.95;6.40;;;;;;;3.84;100.00;101787.13;4954641;29;20042;-78
2023/01/10 08:48:02;;;;;;;24.85;4.88;;;;;;;3.69;100.00;101757.59;4954764;28;20180;-78
2023/01/10 08:50:28;;;;;;;25.85;5.88;;;;;;;3.85;100.00;101792.22;4954719;28;20158;-79
2023/01/10 08:52:53;;;;;;;27.77;5.15;;;;;;;3.90;100.00;101800.59;4954832;28;20511;-78
2023/01/10 08:55:19;;;;;;;27.02;6.80;;;;;;;3.93;100.00;101799.69;4954510;28;20032;-78
2023/01/10 08:57:44;;;;;;;23.92;5.22;;;;;;;3.92;100.00;101793.75;4954884;28;20019;-82
2023/01/10 09:00:11;;;;;;;25.08;5.70;;;;;;;3.95;100.00;101792.88;4954481;29;20055;-79
2023/01/10 09:02:37;;;;;;;30.00;6.22;;;;;;;3.96;100.00;101792.00;4954457;28;20438;-78
2023/01/10 09:05:03;;;;;;;27.95;5.80;;;;;;;3.96;100.00;101787.72;4954630;28;20029;-79
2023/01/10 09:07:28;;;;;;;28.88;6.82;;;;;;;3.83;100.00;101758.16;4954346;28;20383;-80
2023/01/10 09:09:54;;;;;;;25.35;5.68;;;;;;;4.02;100.00;101790.13;4954491;29;20035;-79
2023/01/10 09:15:05;;;;;;;26.73;5.43;;;;;;;3.85;100.00;101736.00;4954659;29;20155;-82
2023/01/10 09:17:30;;;;;;;26.05;5.05;;;;;;;4.03;100.00;101757.75;4954295;29;20078;-79
2023/01/10 09:19:56;;;;;;;24.75;5.00;;;;;;;4.01;100.00;101762.91;4954254;29;20390;-83
2023/01/10 09:22:21;;;;;;;28.52;4.57;;;;;;;4.07;100.00;101761.09;4954323;29;20031;-80
2023/01/10 09:24:47;;;;;;;18.35;5.03;;;;;;;4.21;100.00;101774.41;4954810;29;20114;-79
2023/01/10 09:27:12;;;;;;;27.92;6.45;;;;;;;4.01;100.00;101741.59;4954593;29;20031;-79
2023/01/10 09:29:37;;;;;;;24.85;5.57;;;;;;;3.97;100.00;101738.28;4954676;28;20023;-78
2023/01/10 09:32:04;;;;;;;29.85;5.25;;;;;;;4.21;100.00;101774.41;4954132;28;20035;-80
2023/01/10 09:34:29;;;;;;;21.30;4.65;;;;;;;4.22;100.00;101779.50;4954182;28;20387;-79
2023/01/10 09:36:54;;;;;;;26.52;5.85;;;;;;;4.15;100.00;101760.06;4954175;29;20035;-87
2023/01/10 09:39:20;;;;;;;27.10;4.68;;;;;;;4.06;100.00;101744.09;4954302;28;20032;-79
2023/01/10 09:42:02;;;;;;;20.60;4.60;;;;;;;4.29;100.00;101773.38;4936881;29;20043;-81
2023/01/10 09:44:41;;;;;;;23.90;6.20;;;;;;;4.31;100.00;101763.09;4954332;29;20034;-88
2023/01/10 09:47:34;;;;;;;20.33;4.75;;;;;;;4.35;100.00;101779.25;4954208;28;20156;-87
2023/01/10 09:50:05;;;;;;;23.13;4.07;;;;;;;4.41;100.00;101774.81;4956465;28;20046;-82
2023/01/10 09:52:39;;;;;;;29.40;7.80;;;;;;;4.43;100.00;101764.59;4957642;29;20062;-84
2023/01/10 09:55:15;;;;;;;22.98;5.78;;;;;;;4.53;100.00;101769.44;4957760;28;20030;-84
2023/01/10 09:57:40;;;;;;;26.33;4.88;;;;;;;3.97;100.00;101674.41;4956333;29;20041;-83
2023/01/10 10:00:07;;;;;;;22.10;4.93;;;;;;;4.49;100.00;101749.06;4957523;29;20023;-79
2023/01/10 10:02:38;;;;;;;25.45;4.60;;;;;;;4.63;100.00;101767.53;4957104;29;20102;-84
2023/01/10 10:05:20;;;;;;;22.90;4.93;;;;;;;4.73;100.00;101768.16;4957689;29;20535;-82
2023/01/10 10:07:52;;;;;;;22.58;5.28;;;;;;;4.77;100.00;101775.69;4957671;28;20506;-81
2023/01/10 10:10:24;;;;;;;19.73;4.78;;;;;;;4.83;100.00;101785.81;4957745;29;20121;-82
2023/01/10 10:12:58;;;;;;;25.75;5.43;;;;;;;4.87;100.00;101774.59;4957209;28;20027;-79
2023/01/10 10:16:04;;;;;;;25.00;5.22;;;;;;;4.88;100.00;101760.09;4957509;29;20031;-81
2023/01/10 10:18:49;;;;;;;17.67;4.30;;;;;;;4.99;100.00;101755.53;4879530;29;20041;-82
2023/01/10 10:21:27;;;;;;;18.67;4.03;;;;;;;5.01;100.00;101753.78;4879566;29;20033;-82
2023/01/10 10:24:22;;;;;;;22.08;4.47;;;;;;;5.06;100.00;101748.56;4879489;29;20124;-84
2023/01/10 10:26:57;;;;;;;21.25;5.07;;;;;;;4.80;100.00;101687.78;4805914;29;20050;-84
2023/01/10 10:30:13;;;;;;;17.75;4.65;;;;;;;5.18;100.00;101746.50;4805779;29;20047;-82
2023/01/10 10:32:56;;;;;;;21.40;4.38;;;;;;;5.24;100.00;101750.66;4769483;30;20129;-82
2023/01/10 10:35:30;;;;;;;20.58;4.00;;;;;;;5.28;100.00;101744.56;4769546;30;20056;-86
2023/01/10 10:38:02;;;;;;;21.83;4.13;;;;;;;5.27;99.75;101726.66;4769556;30;20496;-84
2023/01/10 10:40:35;;;;;;;22.05;5.03;;;;;;;5.33;99.46;101736.78;4769825;30;20436;-86
2023/01/10 10:43:12;;;;;;;23.90;4.45;;;;;;;5.12;99.36;101682.69;4769742;30;20100;-84
2023/01/10 10:45:43;;;;;;;20.08;4.22;;;;;;;5.23;99.82;101686.69;4769680;30;20051;-84
2023/01/10 10:48:28;;;;;;;27.23;5.57;;;;;;;5.45;99.70;101714.22;4769490;30;20044;-82
2023/01/10 10:50:59;;;;;;;25.17;4.35;;;;;;;5.47;99.46;101703.91;4769728;30;20059;-79
2023/01/10 10:53:24;;;;;;;26.90;3.65;;;;;;;5.51;99.06;101702.97;4769534;30;20050;-81
2023/01/10 10:55:52;;;;;;;18.30;3.30;;;;;;;5.53;98.95;101706.31;4792936;29;20054;-79
2023/01/10 10:58:17;;;;;;;33.10;4.75;;;;;;;5.57;98.47;101699.38;4805599;29;20035;-80
2023/01/10 11:00:43;;;;;;;19.15;4.13;;;;;;;5.61;98.58;101696.72;4804567;29;20384;-86
2023/01/10 11:03:29;;;;;;;24.40;4.50;;;;;;;5.67;98.89;101701.63;4833905;29;20612;-82
2023/01/10 11:05:55;;;;;;;21.40;4.05;;;;;;;5.71;98.69;101689.59;4909829;29;20045;-82
2023/01/10 11:08:22;;;;;;;20.95;4.43;;;;;;;5.75;98.50;101689.44;4956540;29;20102;-83
2023/01/10 11:10:54;;;;;;;22.05;4.47;;;;;;;5.60;98.43;101651.44;4956534;28;20102;-83
2023/01/10 11:13:31;;;;;;;24.63;5.10;;;;;;;5.84;97.67;101680.66;4956320;28;20027;-83
2023/01/10 11:15:57;;;;;;;24.63;5.53;;;;;;;5.80;97.73;101665.41;4956221;28;20038;-83
2023/01/10 11:18:25;;;;;;;22.63;5.43;;;;;;;5.91;97.48;101674.50;4956202;29;20023;-82
2023/01/10 11:21:00;;;;;;;19.30;4.65;;;;;;;5.92;98.10;101676.19;4956353;28;20034;-83
2023/01/10 11:23:49;;;;;;;23.33;3.95;;;;;;;5.95;97.93;101670.09;4956257;28;20043;-81
2023/01/10 11:26:41;;;;;;;21.88;4.32;;;;;;;5.97;97.33;101670.91;4956121;29;20027;-81
2023/01/10 11:29:22;;;;;;;20.30;4.05;;;;;;;5.56;96.90;101605.47;4953037;28;20090;-81
2023/01/10 11:31:48;;;;;;;19.02;4.18;;;;;;;5.81;96.98;101650.00;4955921;28;20050;-82
2023/01/10 11:34:22;;;;;;;20.92;4.25;;;;;;;5.96;96.92;101670.06;4955736;28;20028;-81
2023/01/10 11:36:53;;;;;;;25.00;4.72;;;;;;;5.96;96.77;101658.97;4955819;29;20078;-80
2023/01/10 11:39:18;;;;;;;24.15;4.82;;;;;;;5.92;97.26;101657.38;4956176;28;20451;-81